sensor_id;sensor_type;location;lat;lon;timestamp;P1;durP1;ratioP1;P2;durP2;ratioP2
24745;SDS011;12845;52.042;6.838;2023-04-16T00:02:20;67.25;;;31.75;;
24745;SDS011;12845;52.042;6.838;2023-04-16T00:04:46;67.90;;;33.70;;
24745;SDS011;12845;52.042;6.838;2023-04-16T00:07:11;71.22;;;32.95;;
24745;SDS011;12845;52.042;6.838;2023-04-16T00:09:37;73.53;;;33.85;;
24745;SDS011;12845;52.042;6.838;2023-04-16T00:12:02;71.72;;;29.65;;
24745;SDS011;12845;52.042;6.838;2023-04-16T00:14:28;71.25;;;36.10;;
24745;SDS011;12845;52.042;6.838;2023-04-16T00:16:54;74.60;;;35.17;;
24745;SDS011;12845;52.042;6.838;2023-04-16T00:19:19;68.72;;;34.33;;
24745;SDS011;12845;52.042;6.838;2023-04-16T00:21:45;75.15;;;33.00;;
24745;SDS011;12845;52.042;6.838;2023-04-16T00:24:10;72.68;;;35.22;;
24745;SDS011;12845;52.042;6.838;2023-04-16T00:26:38;76.85;;;36.90;;
24745;SDS011;12845;52.042;6.838;2023-04-16T00:29:04;69.00;;;31.63;;
24745;SDS011;12845;52.042;6.838;2023-04-16T00:31:30;76.80;;;38.10;;
24745;SDS011;12845;52.042;6.838;2023-04-16T00:33:57;82.07;;;36.50;;
24745;SDS011;12845;52.042;6.838;2023-04-16T00:36:23;77.82;;;36.78;;
24745;SDS011;12845;52.042;6.838;2023-04-16T00:38:51;79.35;;;35.88;;
24745;SDS011;12845;52.042;6.838;2023-04-16T00:41:16;77.18;;;34.15;;
24745;SDS011;12845;52.042;6.838;2023-04-16T00:43:42;80.15;;;35.47;;
24745;SDS011;12845;52.042;6.838;2023-04-16T00:46:07;80.80;;;37.65;;
24745;SDS011;12845;52.042;6.838;2023-04-16T00:48:34;86.40;;;38.65;;
24745;SDS011;12845;52.042;6.838;2023-04-16T00:51:03;87.68;;;39.05;;
24745;SDS011;12845;52.042;6.838;2023-04-16T00:53:30;83.47;;;39.03;;
24745;SDS011;12845;52.042;6.838;2023-04-16T00:55:55;85.25;;;39.72;;
24745;SDS011;12845;52.042;6.838;2023-04-16T00:58:22;83.45;;;38.25;;
24745;SDS011;12845;52.042;6.838;2023-04-16T01:00:48;90.15;;;39.05;;
24745;SDS011;12845;52.042;6.838;2023-04-16T01:03:13;82.32;;;37.60;;
24745;SDS011;12845;52.042;6.838;2023-04-16T01:05:38;94.60;;;40.25;;
24745;SDS011;12845;52.042;6.838;2023-04-16T01:08:04;91.32;;;43.33;;
24745;SDS011;12845;52.042;6.838;2023-04-16T01:10:30;92.80;;;42.60;;
24745;SDS011;12845;52.042;6.838;2023-04-16T01:12:55;99.55;;;38.05;;
24745;SDS011;12845;52.042;6.838;2023-04-16T01:15:21;96.68;;;42.05;;
24745;SDS011;12845;52.042;6.838;2023-04-16T01:17:46;94.95;;;43.33;;
24745;SDS011;12845;52.042;6.838;2023-04-16T01:20:11;94.65;;;44.05;;
24745;SDS011;12845;52.042;6.838;2023-04-16T01:22:37;92.03;;;45.20;;
24745;SDS011;12845;52.042;6.838;2023-04-16T01:25:02;98.03;;;43.40;;
24745;SDS011;12845;52.042;6.838;2023-04-16T01:27:28;100.45;;;44.13;;
24745;SDS011;12845;52.042;6.838;2023-04-16T01:29:53;99.20;;;44.72;;
24745;SDS011;12845;52.042;6.838;2023-04-16T01:32:20;95.60;;;44.22;;
24745;SDS011;12845;52.042;6.838;2023-04-16T01:34:45;99.60;;;44.78;;
24745;SDS011;12845;52.042;6.838;2023-04-16T01:37:11;95.68;;;41.97;;
24745;SDS011;12845;52.042;6.838;2023-04-16T01:39:36;93.40;;;43.83;;
24745;SDS011;12845;52.042;6.838;2023-04-16T01:42:02;89.95;;;41.25;;
24745;SDS011;12845;52.042;6.838;2023-04-16T01:44:27;102.28;;;45.95;;
24745;SDS011;12845;52.042;6.838;2023-04-16T01:46:52;100.28;;;43.17;;
24745;SDS011;12845;52.042;6.838;2023-04-16T01:49:18;100.57;;;47.38;;
24745;SDS011;12845;52.042;6.838;2023-04-16T01:51:43;96.53;;;44.90;;
24745;SDS011;12845;52.042;6.838;2023-04-16T01:54:09;108.85;;;47.60;;
24745;SDS011;12845;52.042;6.838;2023-04-16T01:56:34;94.35;;;39.95;;
24745;SDS011;12845;52.042;6.838;2023-04-16T01:59:00;110.40;;;46.67;;
24745;SDS011;12845;52.042;6.838;2023-04-16T02:01:25;98.38;;;45.83;;
24745;SDS011;12845;52.042;6.838;2023-04-16T02:03:51;106.45;;;45.08;;
24745;SDS011;12845;52.042;6.838;2023-04-16T02:06:17;104.40;;;45.58;;
24745;SDS011;12845;52.042;6.838;2023-04-16T02:08:42;105.60;;;46.05;;
24745;SDS011;12845;52.042;6.838;2023-04-16T02:11:08;100.32;;;46.35;;
24745;SDS011;12845;52.042;6.838;2023-04-16T02:13:33;100.88;;;46.80;;
24745;SDS011;12845;52.042;6.838;2023-04-16T02:15:58;96.20;;;47.42;;
24745;SDS011;12845;52.042;6.838;2023-04-16T02:18:24;101.75;;;47.80;;
24745;SDS011;12845;52.042;6.838;2023-04-16T02:20:49;100.43;;;47.60;;
24745;SDS011;12845;52.042;6.838;2023-04-16T02:23:15;99.90;;;46.08;;
24745;SDS011;12845;52.042;6.838;2023-04-16T02:25:41;101.43;;;46.85;;
24745;SDS011;12845;52.042;6.838;2023-04-16T02:28:09;104.15;;;49.97;;
24745;SDS011;12845;52.042;6.838;2023-04-16T02:30:35;111.90;;;48.20;;
24745;SDS011;12845;52.042;6.838;2023-04-16T02:33:02;96.25;;;46.10;;
24745;SDS011;12845;52.042;6.838;2023-04-16T02:35:32;98.80;;;48.17;;
24745;SDS011;12845;52.042;6.838;2023-04-16T02:37:57;92.13;;;46.35;;
24745;SDS011;12845;52.042;6.838;2023-04-16T02:40:23;96.88;;;49.22;;
24745;SDS011;12845;52.042;6.838;2023-04-16T02:42:49;100.40;;;45.20;;
24745;SDS011;12845;52.042;6.838;2023-04-16T02:45:14;93.95;;;41.20;;
24745;SDS011;12845;52.042;6.838;2023-04-16T02:47:40;98.47;;;46.83;;
24745;SDS011;12845;52.042;6.838;2023-04-16T02:50:05;94.25;;;46.58;;
24745;SDS011;12845;52.042;6.838;2023-04-16T02:52:31;99.75;;;44.38;;
24745;SDS011;12845;52.042;6.838;2023-04-16T02:54:57;93.63;;;48.55;;
24745;SDS011;12845;52.042;6.838;2023-04-16T02:57:23;96.10;;;46.30;;
24745;SDS011;12845;52.042;6.838;2023-04-16T02:59:48;87.68;;;44.22;;
24745;SDS011;12845;52.042;6.838;2023-04-16T03:02:13;83.97;;;44.00;;
24745;SDS011;12845;52.042;6.838;2023-04-16T03:04:40;82.50;;;45.72;;
24745;SDS011;12845;52.042;6.838;2023-04-16T03:07:05;77.22;;;43.78;;
24745;SDS011;12845;52.042;6.838;2023-04-16T03:09:30;81.45;;;44.92;;
24745;SDS011;12845;52.042;6.838;2023-04-16T03:11:55;80.78;;;43.53;;
24745;SDS011;12845;52.042;6.838;2023-04-16T03:14:21;79.65;;;45.15;;
24745;SDS011;12845;52.042;6.838;2023-04-16T03:16:46;87.05;;;43.60;;
24745;SDS011;12845;52.042;6.838;2023-04-16T03:19:12;78.30;;;44.17;;
24745;SDS011;12845;52.042;6.838;2023-04-16T03:21:37;77.25;;;42.60;;
24745;SDS011;12845;52.042;6.838;2023-04-16T03:24:02;81.20;;;42.97;;
24745;SDS011;12845;52.042;6.838;2023-04-16T03:26:28;78.38;;;43.45;;
24745;SDS011;12845;52.042;6.838;2023-04-16T03:28:53;81.90;;;45.15;;
24745;SDS011;12845;52.042;6.838;2023-04-16T03:31:18;76.57;;;42.22;;
24745;SDS011;12845;52.042;6.838;2023-04-16T03:33:44;79.22;;;44.45;;
24745;SDS011;12845;52.042;6.838;2023-04-16T03:36:09;76.78;;;41.10;;
24745;SDS011;12845;52.042;6.838;2023-04-16T03:38:35;73.45;;;42.67;;
24745;SDS011;12845;52.042;6.838;2023-04-16T03:41:00;77.18;;;41.28;;
24745;SDS011;12845;52.042;6.838;2023-04-16T03:43:25;71.70;;;40.53;;
24745;SDS011;12845;52.042;6.838;2023-04-16T03:45:51;74.70;;;39.30;;
24745;SDS011;12845;52.042;6.838;2023-04-16T03:48:16;73.53;;;40.22;;
24745;SDS011;12845;52.042;6.838;2023-04-16T03:50:45;70.78;;;39.70;;
24745;SDS011;12845;52.042;6.838;2023-04-16T03:53:11;66.45;;;37.75;;
24745;SDS011;12845;52.042;6.838;2023-04-16T03:55:37;72.53;;;40.63;;
24745;SDS011;12845;52.042;6.838;2023-04-16T03:58:02;69.05;;;39.15;;
24745;SDS011;12845;52.042;6.838;2023-04-16T04:00:28;66.20;;;38.78;;
24745;SDS011;12845;52.042;6.838;2023-04-16T04:02:54;64.53;;;37.47;;
24745;SDS011;12845;52.042;6.838;2023-04-16T04:05:20;66.03;;;40.25;;
24745;SDS011;12845;52.042;6.838;2023-04-16T04:07:45;67.00;;;38.75;;
24745;SDS011;12845;52.042;6.838;2023-04-16T04:10:11;71.03;;;40.33;;
24745;SDS011;12845;52.042;6.838;2023-04-16T04:12:36;68.68;;;38.83;;
24745;SDS011;12845;52.042;6.838;2023-04-16T04:15:01;63.40;;;38.33;;
24745;SDS011;12845;52.042;6.838;2023-04-16T04:17:27;70.38;;;40.70;;
24745;SDS011;12845;52.042;6.838;2023-04-16T04:19:52;71.07;;;40.65;;
24745;SDS011;12845;52.042;6.838;2023-04-16T04:22:18;67.65;;;40.80;;
24745;SDS011;12845;52.042;6.838;2023-04-16T04:24:43;72.88;;;41.47;;
24745;SDS011;12845;52.042;6.838;2023-04-16T04:27:09;66.10;;;38.95;;
24745;SDS011;12845;52.042;6.838;2023-04-16T04:29:34;65.30;;;40.22;;
24745;SDS011;12845;52.042;6.838;2023-04-16T04:31:59;66.43;;;39.75;;
24745;SDS011;12845;52.042;6.838;2023-04-16T04:34:25;63.67;;;37.78;;
24745;SDS011;12845;52.042;6.838;2023-04-16T04:36:50;65.82;;;39.65;;
24745;SDS011;12845;52.042;6.838;2023-04-16T04:39:16;65.18;;;39.47;;
24745;SDS011;12845;52.042;6.838;2023-04-16T04:41:41;70.32;;;40.00;;
24745;SDS011;12845;52.042;6.838;2023-04-16T04:44:06;70.47;;;40.30;;
24745;SDS011;12845;52.042;6.838;2023-04-16T04:46:32;65.10;;;40.25;;
24745;SDS011;12845;52.042;6.838;2023-04-16T04:48:57;66.97;;;39.67;;
24745;SDS011;12845;52.042;6.838;2023-04-16T04:51:22;64.82;;;37.38;;
24745;SDS011;12845;52.042;6.838;2023-04-16T04:53:48;71.00;;;38.28;;
24745;SDS011;12845;52.042;6.838;2023-04-16T04:56:13;68.10;;;37.30;;
24745;SDS011;12845;52.042;6.838;2023-04-16T04:58:39;64.25;;;41.10;;
24745;SDS011;12845;52.042;6.838;2023-04-16T05:01:05;61.60;;;38.75;;
24745;SDS011;12845;52.042;6.838;2023-04-16T05:03:31;70.60;;;40.75;;
24745;SDS011;12845;52.042;6.838;2023-04-16T05:05:56;63.63;;;39.80;;
24745;SDS011;12845;52.042;6.838;2023-04-16T05:08:21;67.38;;;39.45;;
24745;SDS011;12845;52.042;6.838;2023-04-16T05:10:47;67.43;;;41.65;;
24745;SDS011;12845;52.042;6.838;2023-04-16T05:13:12;70.10;;;40.55;;
24745;SDS011;12845;52.042;6.838;2023-04-16T05:15:37;63.42;;;40.22;;
24745;SDS011;12845;52.042;6.838;2023-04-16T05:18:03;66.90;;;41.55;;
24745;SDS011;12845;52.042;6.838;2023-04-16T05:20:28;65.10;;;41.53;;
24745;SDS011;12845;52.042;6.838;2023-04-16T05:22:53;69.47;;;41.92;;
24745;SDS011;12845;52.042;6.838;2023-04-16T05:25:19;62.55;;;39.42;;
24745;SDS011;12845;52.042;6.838;2023-04-16T05:27:45;63.92;;;41.15;;
24745;SDS011;12845;52.042;6.838;2023-04-16T05:30:10;63.85;;;40.50;;
24745;SDS011;12845;52.042;6.838;2023-04-16T05:32:37;69.97;;;41.67;;
24745;SDS011;12845;52.042;6.838;2023-04-16T05:35:04;68.97;;;43.97;;
24745;SDS011;12845;52.042;6.838;2023-04-16T05:37:30;71.10;;;42.35;;
24745;SDS011;12845;52.042;6.838;2023-04-16T05:39:56;71.10;;;42.78;;
24745;SDS011;12845;52.042;6.838;2023-04-16T05:42:21;70.10;;;40.22;;
24745;SDS011;12845;52.042;6.838;2023-04-16T05:44:46;64.78;;;40.75;;
24745;SDS011;12845;52.042;6.838;2023-04-16T05:47:12;68.68;;;43.30;;
24745;SDS011;12845;52.042;6.838;2023-04-16T05:49:37;65.50;;;41.45;;
24745;SDS011;12845;52.042;6.838;2023-04-16T05:52:02;72.93;;;44.33;;
24745;SDS011;12845;52.042;6.838;2023-04-16T05:54:28;73.82;;;41.42;;
24745;SDS011;12845;52.042;6.838;2023-04-16T05:56:54;68.43;;;43.47;;
24745;SDS011;12845;52.042;6.838;2023-04-16T05:59:19;67.95;;;43.75;;
24745;SDS011;12845;52.042;6.838;2023-04-16T06:01:44;68.78;;;42.92;;
24745;SDS011;12845;52.042;6.838;2023-04-16T06:04:10;68.65;;;43.65;;
24745;SDS011;12845;52.042;6.838;2023-04-16T06:06:35;69.72;;;41.17;;
24745;SDS011;12845;52.042;6.838;2023-04-16T06:09:01;63.97;;;43.80;;
24745;SDS011;12845;52.042;6.838;2023-04-16T06:11:31;65.60;;;41.78;;
24745;SDS011;12845;52.042;6.838;2023-04-16T06:13:56;60.42;;;39.88;;
24745;SDS011;12845;52.042;6.838;2023-04-16T06:16:21;55.75;;;36.95;;
24745;SDS011;12845;52.042;6.838;2023-04-16T06:18:47;56.75;;;38.35;;
24745;SDS011;12845;52.042;6.838;2023-04-16T06:21:12;62.65;;;38.05;;
24745;SDS011;12845;52.042;6.838;2023-04-16T06:23:38;59.03;;;38.08;;
24745;SDS011;12845;52.042;6.838;2023-04-16T06:26:03;61.60;;;37.58;;
24745;SDS011;12845;52.042;6.838;2023-04-16T06:28:29;57.67;;;37.22;;
24745;SDS011;12845;52.042;6.838;2023-04-16T06:30:54;56.75;;;38.65;;
24745;SDS011;12845;52.042;6.838;2023-04-16T06:33:20;52.95;;;36.20;;
24745;SDS011;12845;52.042;6.838;2023-04-16T06:35:45;56.83;;;35.75;;
24745;SDS011;12845;52.042;6.838;2023-04-16T06:38:10;54.80;;;35.55;;
24745;SDS011;12845;52.042;6.838;2023-04-16T06:40:36;51.75;;;33.47;;
24745;SDS011;12845;52.042;6.838;2023-04-16T06:43:01;47.95;;;32.40;;
24745;SDS011;12845;52.042;6.838;2023-04-16T06:45:27;50.33;;;32.38;;
24745;SDS011;12845;52.042;6.838;2023-04-16T06:47:52;49.20;;;33.05;;
24745;SDS011;12845;52.042;6.838;2023-04-16T06:50:17;50.15;;;32.13;;
24745;SDS011;12845;52.042;6.838;2023-04-16T06:52:43;52.50;;;32.65;;
24745;SDS011;12845;52.042;6.838;2023-04-16T06:55:08;50.70;;;33.92;;
24745;SDS011;12845;52.042;6.838;2023-04-16T06:57:34;46.92;;;31.95;;
24745;SDS011;12845;52.042;6.838;2023-04-16T07:00:00;53.13;;;33.80;;
24745;SDS011;12845;52.042;6.838;2023-04-16T07:02:25;46.97;;;32.05;;
24745;SDS011;12845;52.042;6.838;2023-04-16T07:04:51;50.80;;;32.58;;
24745;SDS011;12845;52.042;6.838;2023-04-16T07:07:16;48.30;;;32.25;;
24745;SDS011;12845;52.042;6.838;2023-04-16T07:09:42;52.13;;;35.42;;
24745;SDS011;12845;52.042;6.838;2023-04-16T07:12:07;50.05;;;32.60;;
24745;SDS011;12845;52.042;6.838;2023-04-16T07:14:33;46.28;;;33.78;;
24745;SDS011;12845;52.042;6.838;2023-04-16T07:16:58;48.92;;;32.30;;
24745;SDS011;12845;52.042;6.838;2023-04-16T07:19:23;45.83;;;32.22;;
24745;SDS011;12845;52.042;6.838;2023-04-16T07:21:49;45.75;;;32.05;;
24745;SDS011;12845;52.042;6.838;2023-04-16T07:24:15;46.65;;;32.25;;
24745;SDS011;12845;52.042;6.838;2023-04-16T07:26:41;44.28;;;32.35;;
24745;SDS011;12845;52.042;6.838;2023-04-16T07:29:09;47.13;;;32.58;;
24745;SDS011;12845;52.042;6.838;2023-04-16T07:31:35;48.00;;;32.28;;
24745;SDS011;12845;52.042;6.838;2023-04-16T07:34:00;45.70;;;31.33;;
24745;SDS011;12845;52.042;6.838;2023-04-16T07:36:25;45.05;;;32.17;;
24745;SDS011;12845;52.042;6.838;2023-04-16T07:38:52;49.83;;;34.20;;
24745;SDS011;12845;52.042;6.838;2023-04-16T07:41:20;46.63;;;33.80;;
24745;SDS011;12845;52.042;6.838;2023-04-16T07:43:48;53.58;;;35.42;;
24745;SDS011;12845;52.042;6.838;2023-04-16T07:46:13;55.53;;;34.92;;
24745;SDS011;12845;52.042;6.838;2023-04-16T07:48:44;49.13;;;34.72;;
24745;SDS011;12845;52.042;6.838;2023-04-16T07:51:12;45.17;;;31.90;;
24745;SDS011;12845;52.042;6.838;2023-04-16T07:53:38;54.08;;;34.80;;
24745;SDS011;12845;52.042;6.838;2023-04-16T07:56:03;51.30;;;33.92;;
24745;SDS011;12845;52.042;6.838;2023-04-16T07:58:29;51.00;;;35.25;;
24745;SDS011;12845;52.042;6.838;2023-04-16T08:00:54;53.00;;;33.55;;
24745;SDS011;12845;52.042;6.838;2023-04-16T08:03:19;46.65;;;32.53;;
24745;SDS011;12845;52.042;6.838;2023-04-16T08:05:45;48.47;;;34.10;;
24745;SDS011;12845;52.042;6.838;2023-04-16T08:08:10;51.80;;;35.08;;
24745;SDS011;12845;52.042;6.838;2023-04-16T08:10:35;48.30;;;33.45;;
24745;SDS011;12845;52.042;6.838;2023-04-16T08:13:01;49.28;;;34.58;;
24745;SDS011;12845;52.042;6.838;2023-04-16T08:15:26;49.15;;;35.40;;
24745;SDS011;12845;52.042;6.838;2023-04-16T08:17:52;48.83;;;32.30;;
24745;SDS011;12845;52.042;6.838;2023-04-16T08:20:17;47.20;;;33.45;;
24745;SDS011;12845;52.042;6.838;2023-04-16T08:22:43;46.50;;;31.77;;
24745;SDS011;12845;52.042;6.838;2023-04-16T08:25:09;45.05;;;32.30;;
24745;SDS011;12845;52.042;6.838;2023-04-16T08:27:35;42.72;;;31.08;;
24745;SDS011;12845;52.042;6.838;2023-04-16T08:30:01;43.50;;;33.22;;
24745;SDS011;12845;52.042;6.838;2023-04-16T08:32:26;43.03;;;32.13;;
24745;SDS011;12845;52.042;6.838;2023-04-16T08:34:52;45.50;;;30.77;;
24745;SDS011;12845;52.042;6.838;2023-04-16T08:37:17;45.30;;;32.58;;
24745;SDS011;12845;52.042;6.838;2023-04-16T08:39:42;47.50;;;34.08;;
24745;SDS011;12845;52.042;6.838;2023-04-16T08:42:12;42.97;;;32.85;;
24745;SDS011;12845;52.042;6.838;2023-04-16T08:44:47;43.03;;;33.17;;
24745;SDS011;12845;52.042;6.838;2023-04-16T08:49:44;43.25;;;33.50;;
24745;SDS011;12845;52.042;6.838;2023-04-16T08:52:13;41.08;;;33.13;;
24745;SDS011;12845;52.042;6.838;2023-04-16T08:55:03;44.75;;;34.58;;
24745;SDS011;12845;52.042;6.838;2023-04-16T08:57:29;41.60;;;31.33;;
24745;SDS011;12845;52.042;6.838;2023-04-16T09:00:11;42.65;;;32.33;;
24745;SDS011;12845;52.042;6.838;2023-04-16T09:02:38;42.83;;;30.73;;
24745;SDS011;12845;52.042;6.838;2023-04-16T09:05:04;41.92;;;31.85;;
24745;SDS011;12845;52.042;6.838;2023-04-16T09:07:31;38.42;;;31.90;;
24745;SDS011;12845;52.042;6.838;2023-04-16T09:09:58;46.85;;;32.30;;
24745;SDS011;12845;52.042;6.838;2023-04-16T09:12:24;42.70;;;33.53;;
24745;SDS011;12845;52.042;6.838;2023-04-16T09:14:49;41.60;;;32.28;;
24745;SDS011;12845;52.042;6.838;2023-04-16T09:17:15;41.58;;;30.67;;
24745;SDS011;12845;52.042;6.838;2023-04-16T09:19:42;42.55;;;30.83;;
24745;SDS011;12845;52.042;6.838;2023-04-16T09:22:08;41.85;;;31.80;;
24745;SDS011;12845;52.042;6.838;2023-04-16T09:24:33;41.17;;;28.85;;
24745;SDS011;12845;52.042;6.838;2023-04-16T09:26:59;40.47;;;29.15;;
24745;SDS011;12845;52.042;6.838;2023-04-16T09:29:34;38.67;;;28.63;;
24745;SDS011;12845;52.042;6.838;2023-04-16T09:32:02;41.50;;;30.20;;
24745;SDS011;12845;52.042;6.838;2023-04-16T09:34:31;38.40;;;29.08;;
24745;SDS011;12845;52.042;6.838;2023-04-16T09:37:12;39.70;;;29.23;;
24745;SDS011;12845;52.042;6.838;2023-04-16T09:39:42;40.42;;;29.48;;
24745;SDS011;12845;52.042;6.838;2023-04-16T09:42:08;41.38;;;30.70;;
24745;SDS011;12845;52.042;6.838;2023-04-16T09:44:34;36.75;;;28.15;;
24745;SDS011;12845;52.042;6.838;2023-04-16T09:47:05;38.40;;;26.42;;
24745;SDS011;12845;52.042;6.838;2023-04-16T09:49:39;40.05;;;28.33;;
24745;SDS011;12845;52.042;6.838;2023-04-16T09:52:16;35.17;;;27.38;;
24745;SDS011;12845;52.042;6.838;2023-04-16T09:54:46;35.67;;;25.92;;
24745;SDS011;12845;52.042;6.838;2023-04-16T09:57:26;38.40;;;28.70;;
24745;SDS011;12845;52.042;6.838;2023-04-16T10:00:00;36.50;;;27.42;;
24745;SDS011;12845;52.042;6.838;2023-04-16T10:02:27;31.92;;;26.27;;
24745;SDS011;12845;52.042;6.838;2023-04-16T10:04:53;34.83;;;24.63;;
24745;SDS011;12845;52.042;6.838;2023-04-16T10:07:22;32.70;;;25.17;;
24745;SDS011;12845;52.042;6.838;2023-04-16T10:09:52;32.08;;;24.90;;
24745;SDS011;12845;52.042;6.838;2023-04-16T10:12:18;31.15;;;24.75;;
24745;SDS011;12845;52.042;6.838;2023-04-16T10:14:44;30.38;;;24.42;;
24745;SDS011;12845;52.042;6.838;2023-04-16T10:17:10;32.97;;;25.80;;
24745;SDS011;12845;52.042;6.838;2023-04-16T10:19:36;32.20;;;23.70;;
24745;SDS011;12845;52.042;6.838;2023-04-16T10:22:02;31.27;;;22.20;;
24745;SDS011;12845;52.042;6.838;2023-04-16T10:24:31;31.13;;;23.10;;
24745;SDS011;12845;52.042;6.838;2023-04-16T10:26:58;29.08;;;23.83;;
24745;SDS011;12845;52.042;6.838;2023-04-16T10:29:27;33.60;;;23.85;;
24745;SDS011;12845;52.042;6.838;2023-04-16T10:31:53;29.23;;;22.15;;
24745;SDS011;12845;52.042;6.838;2023-04-16T10:34:20;28.80;;;22.00;;
24745;SDS011;12845;52.042;6.838;2023-04-16T10:36:47;28.33;;;22.85;;
24745;SDS011;12845;52.042;6.838;2023-04-16T10:39:16;27.05;;;21.70;;
24745;SDS011;12845;52.042;6.838;2023-04-16T10:41:44;30.73;;;22.38;;
24745;SDS011;12845;52.042;6.838;2023-04-16T10:44:10;28.45;;;20.90;;
24745;SDS011;12845;52.042;6.838;2023-04-16T10:46:40;26.58;;;20.52;;
24745;SDS011;12845;52.042;6.838;2023-04-16T10:51:39;27.60;;;20.65;;
24745;SDS011;12845;52.042;6.838;2023-04-16T10:56:34;24.13;;;18.52;;
24745;SDS011;12845;52.042;6.838;2023-04-16T10:59:03;23.48;;;18.85;;
24745;SDS011;12845;52.042;6.838;2023-04-16T11:01:30;25.35;;;19.10;;
24745;SDS011;12845;52.042;6.838;2023-04-16T11:04:24;25.80;;;19.40;;
24745;SDS011;12845;52.042;6.838;2023-04-16T11:12:39;23.50;;;17.77;;
24745;SDS011;12845;52.042;6.838;2023-04-16T11:15:07;24.20;;;18.25;;
24745;SDS011;12845;52.042;6.838;2023-04-16T11:17:42;24.20;;;19.05;;
24745;SDS011;12845;52.042;6.838;2023-04-16T11:20:21;25.17;;;18.50;;
24745;SDS011;12845;52.042;6.838;2023-04-16T11:22:49;23.55;;;17.95;;
24745;SDS011;12845;52.042;6.838;2023-04-16T11:25:28;25.42;;;19.30;;
24745;SDS011;12845;52.042;6.838;2023-04-16T11:27:55;27.67;;;19.70;;
24745;SDS011;12845;52.042;6.838;2023-04-16T11:30:30;26.35;;;20.48;;
24745;SDS011;12845;52.042;6.838;2023-04-16T11:32:58;22.95;;;17.90;;
24745;SDS011;12845;52.042;6.838;2023-04-16T11:35:23;24.50;;;17.85;;
24745;SDS011;12845;52.042;6.838;2023-04-16T11:37:49;26.25;;;17.95;;
24745;SDS011;12845;52.042;6.838;2023-04-16T11:40:14;24.08;;;17.90;;
24745;SDS011;12845;52.042;6.838;2023-04-16T11:42:40;23.70;;;19.20;;
24745;SDS011;12845;52.042;6.838;2023-04-16T11:45:07;25.77;;;18.35;;
24745;SDS011;12845;52.042;6.838;2023-04-16T11:47:46;23.10;;;17.92;;
24745;SDS011;12845;52.042;6.838;2023-04-16T11:50:19;20.63;;;16.25;;
24745;SDS011;12845;52.042;6.838;2023-04-16T11:52:46;22.42;;;17.77;;
24745;SDS011;12845;52.042;6.838;2023-04-16T11:55:13;24.77;;;17.65;;
24745;SDS011;12845;52.042;6.838;2023-04-16T11:57:39;23.60;;;17.80;;
24745;SDS011;12845;52.042;6.838;2023-04-16T12:00:05;21.77;;;16.45;;
24745;SDS011;12845;52.042;6.838;2023-04-16T12:02:37;20.58;;;17.08;;
24745;SDS011;12845;52.042;6.838;2023-04-16T12:05:25;22.38;;;16.25;;
24745;SDS011;12845;52.042;6.838;2023-04-16T12:07:55;22.30;;;15.68;;
24745;SDS011;12845;52.042;6.838;2023-04-16T12:10:23;21.52;;;15.80;;
24745;SDS011;12845;52.042;6.838;2023-04-16T12:12:49;21.20;;;15.38;;
24745;SDS011;12845;52.042;6.838;2023-04-16T12:15:21;20.23;;;15.50;;
24745;SDS011;12845;52.042;6.838;2023-04-16T12:17:46;20.45;;;14.25;;
24745;SDS011;12845;52.042;6.838;2023-04-16T12:20:12;19.23;;;14.98;;
24745;SDS011;12845;52.042;6.838;2023-04-16T12:22:39;24.67;;;17.48;;
24745;SDS011;12845;52.042;6.838;2023-04-16T12:25:15;28.50;;;20.17;;
24745;SDS011;12845;52.042;6.838;2023-04-16T12:27:52;27.95;;;19.40;;
24745;SDS011;12845;52.042;6.838;2023-04-16T12:30:23;22.77;;;16.77;;
24745;SDS011;12845;52.042;6.838;2023-04-16T12:32:50;23.27;;;16.88;;
24745;SDS011;12845;52.042;6.838;2023-04-16T12:35:31;22.75;;;18.08;;
24745;SDS011;12845;52.042;6.838;2023-04-16T12:37:58;22.60;;;16.75;;
24745;SDS011;12845;52.042;6.838;2023-04-16T12:40:24;23.05;;;16.75;;
24745;SDS011;12845;52.042;6.838;2023-04-16T12:42:49;27.33;;;19.60;;
24745;SDS011;12845;52.042;6.838;2023-04-16T12:45:15;21.15;;;16.48;;
24745;SDS011;12845;52.042;6.838;2023-04-16T12:47:40;22.98;;;17.15;;
24745;SDS011;12845;52.042;6.838;2023-04-16T12:50:06;22.55;;;17.45;;
24745;SDS011;12845;52.042;6.838;2023-04-16T12:52:32;20.77;;;16.58;;
24745;SDS011;12845;52.042;6.838;2023-04-16T12:54:58;22.17;;;17.02;;
24745;SDS011;12845;52.042;6.838;2023-04-16T12:57:23;22.92;;;17.23;;
24745;SDS011;12845;52.042;6.838;2023-04-16T12:59:53;22.83;;;16.98;;
24745;SDS011;12845;52.042;6.838;2023-04-16T13:02:22;21.80;;;17.10;;
24745;SDS011;12845;52.042;6.838;2023-04-16T13:04:48;23.00;;;16.40;;
24745;SDS011;12845;52.042;6.838;2023-04-16T13:07:14;22.00;;;17.40;;
24745;SDS011;12845;52.042;6.838;2023-04-16T13:09:40;22.92;;;17.73;;
24745;SDS011;12845;52.042;6.838;2023-04-16T13:12:06;23.10;;;17.45;;
24745;SDS011;12845;52.042;6.838;2023-04-16T13:14:32;21.83;;;17.02;;
24745;SDS011;12845;52.042;6.838;2023-04-16T13:16:57;24.52;;;18.42;;
24745;SDS011;12845;52.042;6.838;2023-04-16T13:19:22;24.40;;;18.73;;
24745;SDS011;12845;52.042;6.838;2023-04-16T13:21:48;21.08;;;17.40;;
24745;SDS011;12845;52.042;6.838;2023-04-16T13:24:13;23.40;;;16.73;;
24745;SDS011;12845;52.042;6.838;2023-04-16T13:26:38;26.67;;;17.67;;
24745;SDS011;12845;52.042;6.838;2023-04-16T13:29:04;24.08;;;17.10;;
24745;SDS011;12845;52.042;6.838;2023-04-16T13:31:29;27.10;;;18.85;;
24745;SDS011;12845;52.042;6.838;2023-04-16T13:33:54;19.75;;;16.42;;
24745;SDS011;12845;52.042;6.838;2023-04-16T13:36:20;23.42;;;17.42;;
24745;SDS011;12845;52.042;6.838;2023-04-16T13:38:45;20.33;;;16.63;;
24745;SDS011;12845;52.042;6.838;2023-04-16T13:41:10;24.50;;;17.67;;
24745;SDS011;12845;52.042;6.838;2023-04-16T13:43:36;21.48;;;16.27;;
24745;SDS011;12845;52.042;6.838;2023-04-16T13:46:01;22.45;;;16.88;;
24745;SDS011;12845;52.042;6.838;2023-04-16T13:48:27;22.45;;;16.30;;
24745;SDS011;12845;52.042;6.838;2023-04-16T13:50:52;19.58;;;14.60;;
24745;SDS011;12845;52.042;6.838;2023-04-16T13:53:17;20.63;;;15.77;;
24745;SDS011;12845;52.042;6.838;2023-04-16T13:55:43;21.17;;;15.20;;
24745;SDS011;12845;52.042;6.838;2023-04-16T13:58:08;18.10;;;14.18;;
24745;SDS011;12845;52.042;6.838;2023-04-16T14:00:35;17.73;;;13.73;;
24745;SDS011;12845;52.042;6.838;2023-04-16T14:03:01;19.05;;;14.88;;
24745;SDS011;12845;52.042;6.838;2023-04-16T14:05:27;15.73;;;13.00;;
24745;SDS011;12845;52.042;6.838;2023-04-16T14:07:52;19.02;;;13.98;;
24745;SDS011;12845;52.042;6.838;2023-04-16T14:10:18;18.60;;;14.15;;
24745;SDS011;12845;52.042;6.838;2023-04-16T14:12:55;17.27;;;12.90;;
24745;SDS011;12845;52.042;6.838;2023-04-16T14:15:21;16.85;;;12.90;;
24745;SDS011;12845;52.042;6.838;2023-04-16T14:17:46;20.02;;;13.30;;
24745;SDS011;12845;52.042;6.838;2023-04-16T14:20:12;18.20;;;14.20;;
24745;SDS011;12845;52.042;6.838;2023-04-16T14:22:38;18.23;;;14.90;;
24745;SDS011;12845;52.042;6.838;2023-04-16T14:25:04;21.10;;;16.10;;
24745;SDS011;12845;52.042;6.838;2023-04-16T14:27:30;16.02;;;13.18;;
24745;SDS011;12845;52.042;6.838;2023-04-16T14:29:56;20.52;;;14.82;;
24745;SDS011;12845;52.042;6.838;2023-04-16T14:32:22;18.60;;;14.00;;